createdAt,value
2023-09-23T00:00:50.594Z,96462.00
2023-09-23T00:03:17.817Z,96454.00
2023-09-23T00:05:45.755Z,96463.00
2023-09-23T00:08:12.889Z,96462.00
2023-09-23T00:10:40.114Z,96470.00
2023-09-23T00:13:07.308Z,96472.00
2023-09-23T00:15:36.355Z,96472.00
2023-09-23T00:18:03.544Z,96485.00
2023-09-23T00:20:30.514Z,96476.00
2023-09-23T00:22:57.555Z,96469.00
2023-09-23T00:25:25.004Z,96472.00
2023-09-23T00:27:56.130Z,96485.00
2023-09-23T00:30:27.855Z,96487.00
2023-09-23T00:32:55.081Z,96497.00
2023-09-23T00:35:22.051Z,96507.00
2023-09-23T00:37:51.077Z,96516.00
2023-09-23T00:40:25.928Z,96509.00
2023-09-23T00:42:52.860Z,96515.00
2023-09-23T00:45:23.626Z,96512.00
2023-09-23T00:47:50.864Z,96507.00
2023-09-23T00:50:19.812Z,96507.00
2023-09-23T00:52:54.224Z,96513.00
2023-09-23T00:55:21.836Z,96509.00
2023-09-23T00:57:50.155Z,96506.00
2023-09-23T01:00:25.588Z,96511.00
2023-09-23T01:02:56.999Z,96509.00
2023-09-23T01:05:28.137Z,96512.00
2023-09-23T01:08:18.530Z,96507.00
2023-09-23T01:10:46.613Z,96509.00
2023-09-23T01:13:13.505Z,96506.00
2023-09-23T01:15:41.807Z,96499.00
2023-09-23T01:18:09.776Z,96502.00
2023-09-23T01:20:38.518Z,96512.00
2023-09-23T01:23:06.456Z,96518.00
2023-09-23T01:25:37.731Z,96522.00
2023-09-23T01:28:09.780Z,96524.00
2023-09-23T01:30:37.235Z,96521.00
2023-09-23T01:33:08.533Z,96519.00
2023-09-23T01:35:36.140Z,96519.00
2023-09-23T01:38:04.792Z,96531.00
2023-09-23T01:40:33.435Z,96530.00
2023-09-23T01:43:00.356Z,96538.00
2023-09-23T01:45:27.642Z,96529.00
2023-09-23T01:47:58.058Z,96530.00
2023-09-23T01:50:28.916Z,96534.00
2023-09-23T01:53:01.432Z,96539.00
2023-09-23T01:55:29.771Z,96547.00
2023-09-23T01:57:57.357Z,96563.00
2023-09-23T02:00:30.697Z,96563.00
2023-09-23T02:02:58.660Z,96560.00
2023-09-23T02:05:30.423Z,96574.00
2023-09-23T02:07:57.597Z,96580.00
2023-09-23T02:10:27.426Z,96582.00
2023-09-23T02:12:54.986Z,96576.00
2023-09-23T02:15:21.982Z,96576.00
2023-09-23T02:17:50.217Z,96585.00
2023-09-23T02:20:20.200Z,96592.00
2023-09-23T02:22:55.153Z,96581.00
2023-09-23T02:25:26.727Z,96580.00
2023-09-23T02:27:56.131Z,96574.00
2023-09-23T02:30:23.303Z,96577.00
2023-09-23T02:32:50.348Z,96585.00
2023-09-23T02:35:17.826Z,96579.00
2023-09-23T02:37:47.430Z,96591.00
2023-09-23T02:40:17.766Z,96592.00
2023-09-23T02:42:48.464Z,96597.00
2023-09-23T02:45:18.737Z,96592.00
2023-09-23T02:47:45.968Z,96590.00
2023-09-23T02:50:15.757Z,96588.00
2023-09-23T02:52:46.505Z,96587.00
2023-09-23T02:55:16.997Z,96589.00
2023-09-23T02:57:55.366Z,96589.00
2023-09-23T03:00:25.252Z,96602.00
2023-09-23T03:02:58.094Z,96602.00
2023-09-23T03:05:28.618Z,96615.00
2023-09-23T03:07:59.143Z,96611.00
2023-09-23T03:10:40.457Z,96618.00
2023-09-23T03:13:08.912Z,96629.00
2023-09-23T03:15:54.507Z,96624.00
2023-09-23T03:18:34.721Z,96623.00
2023-09-23T03:21:11.728Z,96631.00
2023-09-23T03:23:42.105Z,96631.00
2023-09-23T03:26:10.417Z,96633.00
2023-09-23T03:28:40.292Z,96638.00
2023-09-23T03:31:10.297Z,96643.00
2023-09-23T03:33:38.311Z,96641.00
2023-09-23T03:36:10.977Z,96654.00
2023-09-23T03:38:38.822Z,96660.00
2023-09-23T03:41:05.697Z,96645.00
2023-09-23T03:43:33.098Z,96647.00
2023-09-23T03:45:59.972Z,96641.00
2023-09-23T03:48:26.949Z,96641.00
2023-09-23T03:50:54.864Z,96645.00
2023-09-23T03:53:22.788Z,96646.00
2023-09-23T03:55:53.385Z,96658.00
2023-09-23T03:58:20.646Z,96655.00
2023-09-23T04:00:48.420Z,96648.00
2023-09-23T04:03:16.056Z,96658.00
2023-09-23T04:05:43.030Z,96664.00
2023-09-23T04:08:10.451Z,96671.00
2023-09-23T04:10:41.072Z,96669.00
2023-09-23T04:13:08.298Z,96668.00
2023-09-23T04:15:35.232Z,96669.00
2023-09-23T04:18:06.873Z,96672.00
2023-09-23T04:20:33.903Z,96678.00
2023-09-23T04:23:00.891Z,96677.00
2023-09-23T04:25:27.837Z,96681.00
2023-09-23T04:27:54.785Z,96676.00
2023-09-23T04:30:21.813Z,96680.00
2023-09-23T04:32:48.967Z,96684.00
2023-09-23T04:35:17.401Z,96676.00
2023-09-23T04:37:44.450Z,96687.00
2023-09-23T04:40:13.534Z,96683.00
2023-09-23T04:42:43.499Z,96701.00
2023-09-23T04:45:12.565Z,96689.00
2023-09-23T04:47:41.456Z,96691.00
2023-09-23T04:50:13.476Z,96700.00
2023-09-23T04:52:42.189Z,96710.00
2023-09-23T04:55:09.767Z,96710.00
2023-09-23T04:57:37.389Z,96717.00
2023-09-23T05:00:10.735Z,96726.00
2023-09-23T05:02:40.756Z,96736.00
2023-09-23T05:05:10.844Z,96729.00
2023-09-23T05:07:38.557Z,96728.00
2023-09-23T05:10:07.755Z,96729.00
2023-09-23T05:12:35.098Z,96731.00
2023-09-23T05:15:02.199Z,96734.00
2023-09-23T05:17:29.671Z,96741.00
2023-09-23T05:19:56.772Z,96746.00
2023-09-23T05:22:23.782Z,96744.00
2023-09-23T05:24:57.796Z,96749.00
2023-09-23T05:27:25.803Z,96743.00
2023-09-23T05:29:53.133Z,96758.00
2023-09-23T05:32:21.585Z,96748.00
2023-09-23T05:34:52.312Z,96745.00
2023-09-23T05:37:19.277Z,96739.00
2023-09-23T05:39:47.236Z,96747.00
2023-09-23T05:42:16.796Z,96763.00
2023-09-23T05:44:45.217Z,96773.00
2023-09-23T05:47:12.294Z,96777.00
2023-09-23T05:49:39.981Z,96779.00
2023-09-23T05:52:07.360Z,96778.00
2023-09-23T05:54:34.701Z,96789.00
2023-09-23T05:57:01.558Z,96783.00
2023-09-23T05:59:28.490Z,96789.00
2023-09-23T06:01:55.373Z,96779.00
2023-09-23T06:04:22.342Z,96776.00
2023-09-23T06:06:49.736Z,96780.00
2023-09-23T06:09:16.620Z,96789.00
2023-09-23T06:11:44.250Z,96808.00
2023-09-23T06:14:12.812Z,96816.00
2023-09-23T06:16:39.918Z,96812.00
2023-09-23T06:19:08.107Z,96807.00
2023-09-23T06:21:36.491Z,96811.00
2023-09-23T06:24:03.860Z,96814.00
2023-09-23T06:26:30.708Z,96828.00
2023-09-23T06:28:58.134Z,96828.00
2023-09-23T06:31:25.227Z,96847.00
2023-09-23T06:33:52.172Z,96861.00
2023-09-23T06:36:19.156Z,96862.00
2023-09-23T06:38:46.029Z,96869.00
2023-09-23T06:41:13.021Z,96874.00
2023-09-23T06:43:39.924Z,96881.00
2023-09-23T06:46:06.766Z,96891.00
2023-09-23T06:48:33.764Z,96895.00
2023-09-23T06:51:03.879Z,96895.00
2023-09-23T06:53:31.924Z,96900.00
2023-09-23T06:55:58.951Z,96901.00
2023-09-23T06:58:25.900Z,96897.00
2023-09-23T07:00:52.910Z,96906.00
2023-09-23T07:03:19.974Z,96909.00
2023-09-23T07:05:48.714Z,96909.00
2023-09-23T07:08:16.504Z,96905.00
2023-09-23T07:10:43.501Z,96908.00
2023-09-23T07:13:13.188Z,96902.00
2023-09-23T07:15:41.894Z,96913.00
2023-09-23T07:18:09.813Z,96926.00
2023-09-23T07:20:37.128Z,96911.00
2023-09-23T07:23:04.586Z,96924.00
2023-09-23T07:25:38.198Z,96928.00
2023-09-23T07:28:07.845Z,96934.00
2023-09-23T07:30:36.273Z,96940.00
2023-09-23T07:33:04.064Z,96936.00
2023-09-23T07:35:35.176Z,96947.00
2023-09-23T07:38:03.881Z,96952.00
2023-09-23T07:40:32.140Z,96956.00
2023-09-23T07:42:59.237Z,96968.00
2023-09-23T07:45:26.261Z,96960.00
2023-09-23T07:47:53.250Z,96973.00
2023-09-23T07:50:20.229Z,96971.00
2023-09-23T07:52:47.103Z,96979.00
2023-09-23T07:55:14.969Z,96985.00
2023-09-23T07:57:42.057Z,96986.00
2023-09-23T08:00:09.907Z,96996.00
2023-09-23T08:02:37.504Z,96993.00
2023-09-23T08:05:05.751Z,97004.00
2023-09-23T08:07:33.750Z,97011.00
2023-09-23T08:10:00.784Z,97009.00
2023-09-23T08:12:28.519Z,97027.00
2023-09-23T08:14:55.610Z,97037.00
2023-09-23T08:17:22.766Z,97045.00
2023-09-23T08:19:52.118Z,97054.00
2023-09-23T08:22:19.362Z,97049.00
2023-09-23T08:24:46.430Z,97047.00
2023-09-23T08:27:13.837Z,97048.00
2023-09-23T08:29:40.916Z,97042.00
2023-09-23T08:32:08.000Z,97039.00
2023-09-23T08:34:34.936Z,97040.00
2023-09-23T08:37:02.181Z,97042.00
2023-09-23T08:39:29.606Z,97042.00
2023-09-23T08:41:58.420Z,97042.00
2023-09-23T08:44:27.842Z,97047.00
2023-09-23T08:46:55.251Z,97045.00
2023-09-23T08:49:25.518Z,97058.00
2023-09-23T08:51:56.708Z,97055.00
2023-09-23T08:54:30.301Z,97063.00
2023-09-23T08:56:57.480Z,97066.00
2023-09-23T08:59:27.830Z,97068.00
2023-09-23T09:01:56.435Z,97060.00
2023-09-23T09:04:24.396Z,97059.00
2023-09-23T09:06:53.257Z,97061.00
2023-09-23T09:09:20.404Z,97057.00
2023-09-23T09:11:52.254Z,97051.00
2023-09-23T09:14:19.753Z,97054.00
2023-09-23T09:16:47.011Z,97045.00
2023-09-23T09:19:14.049Z,97055.00
2023-09-23T09:21:42.370Z,97055.00
2023-09-23T09:24:10.467Z,97049.00
2023-09-23T09:26:39.567Z,97055.00
2023-09-23T09:29:06.603Z,97051.00
2023-09-23T09:31:37.390Z,97049.00
2023-09-23T09:34:12.624Z,97066.00
2023-09-23T09:36:40.265Z,97059.00
2023-09-23T09:39:11.991Z,97064.00
2023-09-23T09:41:59.753Z,97060.00
2023-09-23T09:44:29.528Z,97063.00
2023-09-23T09:46:58.184Z,97058.00
2023-09-23T09:49:26.186Z,97063.00
2023-09-23T09:51:53.541Z,97067.00
2023-09-23T09:54:26.285Z,97066.00
2023-09-23T09:56:54.591Z,97069.00
2023-09-23T09:59:31.488Z,97062.00
2023-09-23T10:02:00.146Z,97071.00
2023-09-23T10:04:33.978Z,97071.00
2023-09-23T10:07:01.587Z,97060.00
2023-09-23T10:09:33.132Z,97070.00
2023-09-23T10:12:00.835Z,97071.00
2023-09-23T10:14:28.279Z,97085.00
2023-09-23T10:17:03.006Z,97080.00
2023-09-23T10:19:34.933Z,97087.00
2023-09-23T10:22:19.057Z,97089.00
2023-09-23T10:24:47.998Z,97084.00
2023-09-23T10:27:22.945Z,97091.00
2023-09-23T10:29:51.022Z,97084.00
2023-09-23T10:32:19.628Z,97092.00
2023-09-23T10:34:56.794Z,97089.00
2023-09-23T10:37:36.545Z,97090.00
2023-09-23T10:40:15.527Z,97089.00
2023-09-23T10:42:43.029Z,97083.00
2023-09-23T10:45:12.411Z,97076.00
2023-09-23T10:47:39.489Z,97074.00
2023-09-23T10:50:09.125Z,97080.00
2023-09-23T10:52:36.497Z,97077.00
2023-09-23T10:55:04.468Z,97079.00
2023-09-23T10:57:31.392Z,97073.00
2023-09-23T10:59:59.402Z,97072.00
2023-09-23T11:02:26.659Z,97070.00
2023-09-23T11:04:57.119Z,97061.00
2023-09-23T11:07:26.064Z,97074.00
2023-09-23T11:09:54.999Z,97068.00
2023-09-23T11:12:21.916Z,97065.00
2023-09-23T11:14:49.846Z,97074.00
2023-09-23T11:17:27.635Z,97080.00
2023-09-23T11:19:59.174Z,97084.00
2023-09-23T11:22:30.747Z,97085.00
2023-09-23T11:24:59.388Z,97094.00
2023-09-23T11:27:28.135Z,97096.00
2023-09-23T11:29:56.530Z,97090.00
2023-09-23T11:32:28.249Z,97093.00
2023-09-23T11:34:56.077Z,97084.00
2023-09-23T11:37:25.935Z,97098.00
2023-09-23T11:39:52.926Z,97081.00
2023-09-23T11:42:20.429Z,97083.00
2023-09-23T11:44:47.730Z,97083.00
2023-09-23T11:47:19.217Z,97085.00
2023-09-23T11:49:46.275Z,97083.00
2023-09-23T11:52:13.940Z,97084.00
2023-09-23T11:54:42.025Z,97091.00
2023-09-23T11:57:09.859Z,97090.00
2023-09-23T11:59:38.000Z,97091.00
2023-09-23T12:02:05.549Z,97087.00
2023-09-23T12:04:32.968Z,97084.00
2023-09-23T12:07:00.126Z,97088.00
2023-09-23T12:09:29.018Z,97083.00
2023-09-23T12:11:55.993Z,97086.00
2023-09-23T12:14:22.975Z,97085.00
2023-09-23T12:16:49.871Z,97082.00
2023-09-23T12:19:16.835Z,97088.00
2023-09-23T12:21:43.803Z,97091.00
2023-09-23T12:24:10.729Z,97103.00
2023-09-23T12:26:37.660Z,97096.00
2023-09-23T12:29:04.692Z,97104.00
2023-09-23T12:31:31.643Z,97102.00
2023-09-23T12:33:58.656Z,97105.00
2023-09-23T12:36:26.129Z,97108.00
2023-09-23T12:38:55.748Z,97107.00
2023-09-23T12:41:22.922Z,97107.00
2023-09-23T12:43:49.924Z,97107.00
2023-09-23T12:46:16.866Z,97113.00
2023-09-23T12:48:45.072Z,97111.00
2023-09-23T12:51:13.854Z,97117.00
2023-09-23T12:53:41.119Z,97116.00
2023-09-23T12:56:09.521Z,97114.00
2023-09-23T12:58:36.526Z,97113.00
2023-09-23T13:01:03.746Z,97112.00
2023-09-23T13:03:30.869Z,97113.00
2023-09-23T13:05:58.011Z,97119.00
2023-09-23T13:08:25.064Z,97130.00
2023-09-23T13:10:52.902Z,97134.00
2023-09-23T13:13:19.844Z,97144.00
2023-09-23T13:15:46.827Z,97151.00
2023-09-23T13:18:13.783Z,97159.00
2023-09-23T13:20:40.864Z,97158.00
2023-09-23T13:23:08.732Z,97160.00
2023-09-23T13:25:35.964Z,97165.00
2023-09-23T13:28:02.886Z,97166.00
2023-09-23T13:30:29.960Z,97164.00
2023-09-23T13:32:56.983Z,97164.00
2023-09-23T13:35:23.876Z,97163.00
2023-09-23T13:37:51.061Z,97156.00
2023-09-23T13:40:18.134Z,97150.00
2023-09-23T13:42:45.100Z,97143.00
2023-09-23T13:45:12.561Z,97147.00
2023-09-23T13:47:39.741Z,97159.00
2023-09-23T13:50:10.616Z,97168.00
2023-09-23T13:52:38.034Z,97176.00
2023-09-23T13:55:09.245Z,97187.00
2023-09-23T13:57:36.649Z,97189.00
2023-09-23T14:00:05.942Z,97178.00
2023-09-23T14:02:33.522Z,97173.00
2023-09-23T14:05:00.591Z,97161.00
2023-09-23T14:07:28.432Z,97154.00
2023-09-23T14:10:00.771Z,97160.00
2023-09-23T14:12:31.769Z,97157.00
2023-09-23T14:14:58.837Z,97155.00
2023-09-23T14:17:27.358Z,97152.00
2023-09-23T14:19:54.622Z,97150.00
2023-09-23T14:22:21.543Z,97151.00
2023-09-23T14:24:48.399Z,97155.00
2023-09-23T14:27:16.167Z,97159.00
2023-09-23T14:29:43.021Z,97175.00
2023-09-23T14:32:09.910Z,97180.00
2023-09-23T14:34:36.794Z,97176.00
2023-09-23T14:37:03.731Z,97189.00
2023-09-23T14:39:30.571Z,97191.00
2023-09-23T14:41:57.476Z,97183.00
2023-09-23T14:44:24.367Z,97181.00
2023-09-23T14:46:51.171Z,97183.00
2023-09-23T14:49:18.046Z,97183.00
2023-09-23T14:51:45.003Z,97184.00
2023-09-23T14:54:11.860Z,97202.00
2023-09-23T14:56:38.724Z,97206.00
2023-09-23T14:59:05.639Z,97217.00
2023-09-23T15:01:34.075Z,97211.00
2023-09-23T15:04:01.268Z,97220.00
2023-09-23T15:06:28.271Z,97212.00
2023-09-23T15:09:00.564Z,97220.00
2023-09-23T15:11:30.874Z,97227.00
2023-09-23T15:13:58.340Z,97231.00
2023-09-23T15:16:25.477Z,97237.00
2023-09-23T15:18:52.530Z,97240.00
2023-09-23T15:21:19.432Z,97237.00
2023-09-23T15:23:46.318Z,97244.00
2023-09-23T15:26:13.355Z,97245.00
2023-09-23T15:28:40.870Z,97254.00
2023-09-23T15:31:08.866Z,97254.00
2023-09-23T15:33:36.887Z,97252.00
2023-09-23T15:36:04.236Z,97264.00
2023-09-23T15:38:31.211Z,97275.00
2023-09-23T15:40:58.079Z,97277.00
2023-09-23T15:43:25.018Z,97274.00
2023-09-23T15:46:02.561Z,97270.00
2023-09-23T15:48:29.437Z,97275.00
2023-09-23T15:50:56.540Z,97276.00
2023-09-23T15:53:23.862Z,97273.00
2023-09-23T15:55:54.089Z,97274.00
2023-09-23T15:58:21.256Z,97287.00
2023-09-23T16:00:48.599Z,97282.00
2023-09-23T16:03:15.887Z,97284.00
2023-09-23T16:05:43.525Z,97280.00
2023-09-23T16:08:10.620Z,97282.00
2023-09-23T16:10:37.639Z,97281.00
2023-09-23T16:13:05.626Z,97282.00
2023-09-23T16:15:32.837Z,97282.00
2023-09-23T16:17:59.904Z,97289.00
2023-09-23T16:20:26.854Z,97285.00
2023-09-23T16:22:53.821Z,97290.00
2023-09-23T16:25:20.754Z,97291.00
2023-09-23T16:27:47.635Z,97288.00
2023-09-23T16:30:14.608Z,97284.00
2023-09-23T16:32:41.582Z,97281.00
2023-09-23T16:35:11.960Z,97284.00
2023-09-23T16:37:38.975Z,97288.00
2023-09-23T16:40:08.417Z,97286.00
2023-09-23T16:42:35.396Z,97295.00
2023-09-23T16:45:02.377Z,97294.00
2023-09-23T16:47:29.374Z,97301.00
2023-09-23T16:49:56.216Z,97300.00
2023-09-23T16:52:23.220Z,97316.00
2023-09-23T16:54:50.642Z,97313.00
2023-09-23T16:57:19.791Z,97313.00
2023-09-23T16:59:47.685Z,97318.00
2023-09-23T17:02:15.492Z,97323.00
2023-09-23T17:04:46.643Z,97326.00
2023-09-23T17:07:14.437Z,97337.00
2023-09-23T17:09:42.771Z,97344.00
2023-09-23T17:12:12.012Z,97338.00
2023-09-23T17:14:38.918Z,97337.00
2023-09-23T17:17:05.949Z,97342.00
2023-09-23T17:19:32.837Z,97340.00
2023-09-23T17:22:00.544Z,97349.00
2023-09-23T17:24:29.185Z,97354.00
2023-09-23T17:26:56.261Z,97355.00
2023-09-23T17:29:23.183Z,97362.00
2023-09-23T17:31:50.565Z,97359.00
2023-09-23T17:34:17.683Z,97362.00
2023-09-23T17:36:44.603Z,97380.00
2023-09-23T17:39:12.094Z,97371.00
2023-09-23T17:41:39.515Z,97377.00
2023-09-23T17:44:07.136Z,97386.00
2023-09-23T17:46:34.503Z,97384.00
2023-09-23T17:49:01.433Z,97392.00
2023-09-23T17:51:28.523Z,97391.00
2023-09-23T17:53:55.859Z,97397.00
2023-09-23T17:56:23.207Z,97403.00
2023-09-23T17:58:50.252Z,97410.00
2023-09-23T18:01:17.291Z,97408.00
2023-09-23T18:03:44.360Z,97410.00
2023-09-23T18:06:13.459Z,97421.00
2023-09-23T18:08:40.642Z,97424.00
2023-09-23T18:11:10.298Z,97437.00
2023-09-23T18:13:42.977Z,97450.00
2023-09-23T18:16:09.894Z,97447.00
2023-09-23T18:18:36.963Z,97455.00
2023-09-23T18:21:03.958Z,97468.00
2023-09-23T18:23:30.963Z,97461.00
2023-09-23T18:25:57.988Z,97477.00
2023-09-23T18:28:25.482Z,97482.00
2023-09-23T18:30:53.434Z,97480.00
2023-09-23T18:33:20.447Z,97478.00
2023-09-23T18:35:48.658Z,97479.00
2023-09-23T18:38:15.651Z,97484.00
2023-09-23T18:40:42.474Z,97492.00
2023-09-23T18:43:11.091Z,97494.00
2023-09-23T18:45:38.056Z,97486.00
2023-09-23T18:48:23.861Z,97495.00
2023-09-23T18:50:52.599Z,97499.00
2023-09-23T18:53:19.631Z,97503.00
2023-09-23T18:55:46.618Z,97512.00
2023-09-23T18:58:13.693Z,97502.00
2023-09-23T19:00:40.965Z,97500.00
2023-09-23T19:03:08.529Z,97498.00
2023-09-23T19:05:36.374Z,97504.00
2023-09-23T19:08:04.183Z,97504.00
2023-09-23T19:10:31.116Z,97513.00
2023-09-23T19:12:58.239Z,97518.00
2023-09-23T19:15:25.166Z,97521.00
2023-09-23T19:17:52.188Z,97511.00
2023-09-23T19:20:19.479Z,97511.00
2023-09-23T19:22:46.806Z,97519.00
2023-09-23T19:25:13.792Z,97517.00
2023-09-23T19:27:43.700Z,97519.00
2023-09-23T19:30:14.446Z,97525.00
2023-09-23T19:32:42.692Z,97524.00
2023-09-23T19:35:10.357Z,97522.00
2023-09-23T19:37:38.655Z,97515.00
2023-09-23T19:40:07.279Z,97517.00
2023-09-23T19:42:35.622Z,97521.00
2023-09-23T19:45:05.039Z,97524.00
2023-09-23T19:47:33.144Z,97527.00
2023-09-23T19:50:01.178Z,97542.00
2023-09-23T19:52:35.088Z,97550.00
2023-09-23T19:55:03.007Z,97551.00
2023-09-23T19:57:29.890Z,97555.00
2023-09-23T19:59:57.389Z,97558.00
2023-09-23T20:02:24.458Z,97552.00
2023-09-23T20:04:51.480Z,97559.00
2023-09-23T20:07:18.413Z,97566.00
2023-09-23T20:09:45.427Z,97571.00
2023-09-23T20:12:12.370Z,97574.00
2023-09-23T20:14:39.515Z,97578.00
2023-09-23T20:17:08.022Z,97569.00
2023-09-23T20:19:35.209Z,97578.00
2023-09-23T20:22:03.312Z,97568.00
2023-09-23T20:24:30.296Z,97571.00
2023-09-23T20:26:57.203Z,97572.00
2023-09-23T20:29:24.523Z,97562.00
2023-09-23T20:31:51.673Z,97565.00
2023-09-23T20:34:19.048Z,97577.00
2023-09-23T20:36:46.053Z,97576.00
2023-09-23T20:39:13.284Z,97581.00
2023-09-23T20:41:40.477Z,97587.00
2023-09-23T20:44:07.566Z,97587.00
2023-09-23T20:46:34.765Z,97595.00
2023-09-23T20:49:01.852Z,97595.00
2023-09-23T20:51:29.355Z,97599.00
2023-09-23T20:53:57.226Z,97606.00
2023-09-23T20:56:24.352Z,97597.00
2023-09-23T20:58:51.860Z,97605.00
2023-09-23T21:01:18.913Z,97599.00
2023-09-23T21:03:45.954Z,97602.00
2023-09-23T21:06:12.920Z,97606.00
2023-09-23T21:08:39.821Z,97615.00
2023-09-23T21:11:06.753Z,97612.00
2023-09-23T21:13:33.567Z,97621.00
2023-09-23T21:16:04.559Z,97621.00
2023-09-23T21:18:32.274Z,97634.00
2023-09-23T21:20:59.228Z,97634.00
2023-09-23T21:23:26.495Z,97645.00
2023-09-23T21:25:53.644Z,97646.00
2023-09-23T21:28:20.807Z,97651.00
2023-09-23T21:30:47.761Z,97652.00
2023-09-23T21:33:15.091Z,97650.00
2023-09-23T21:35:42.809Z,97649.00
2023-09-23T21:38:09.845Z,97649.00
2023-09-23T21:40:41.335Z,97657.00
2023-09-23T21:43:11.268Z,97641.00
2023-09-23T21:45:40.158Z,97643.00
2023-09-23T21:48:10.628Z,97641.00
2023-09-23T21:50:37.931Z,97643.00
2023-09-23T21:53:06.211Z,97646.00
2023-09-23T21:55:33.301Z,97645.00
2023-09-23T21:58:00.224Z,97639.00
2023-09-23T22:00:27.911Z,97643.00
2023-09-23T22:03:00.815Z,97632.00
2023-09-23T22:05:30.367Z,97629.00
2023-09-23T22:07:59.866Z,97632.00
2023-09-23T22:10:28.134Z,97630.00
2023-09-23T22:12:57.490Z,97627.00
2023-09-23T22:15:26.906Z,97630.00
2023-09-23T22:17:55.050Z,97632.00
2023-09-23T22:20:25.586Z,97629.00
2023-09-23T22:22:52.985Z,97640.00
2023-09-23T22:25:23.109Z,97642.00
2023-09-23T22:27:54.908Z,97644.00
2023-09-23T22:30:26.950Z,97640.00
2023-09-23T22:32:59.460Z,97644.00
2023-09-23T22:35:31.387Z,97650.00
2023-09-23T22:38:04.253Z,97646.00
2023-09-23T22:40:31.792Z,97658.00
2023-09-23T22:42:59.606Z,97651.00
2023-09-23T22:45:37.963Z,97664.00
2023-09-23T22:48:07.102Z,97672.00
2023-09-23T22:50:34.913Z,97668.00
2023-09-23T22:53:02.079Z,97666.00
2023-09-23T22:55:28.946Z,97675.00
2023-09-23T22:57:55.841Z,97683.00
2023-09-23T23:00:26.577Z,97671.00
2023-09-23T23:02:55.374Z,97674.00
2023-09-23T23:05:22.465Z,97672.00
2023-09-23T23:07:53.650Z,97673.00
2023-09-23T23:10:21.178Z,97678.00
2023-09-23T23:12:48.917Z,97682.00
2023-09-23T23:15:17.992Z,97692.00
2023-09-23T23:17:47.694Z,97687.00
2023-09-23T23:20:23.994Z,97691.00
2023-09-23T23:22:52.643Z,97680.00
2023-09-23T23:25:20.003Z,97688.00
2023-09-23T23:27:47.558Z,97689.00
2023-09-23T23:30:19.792Z,97693.00
2023-09-23T23:32:47.754Z,97688.00
2023-09-23T23:35:22.648Z,97687.00
2023-09-23T23:37:49.755Z,97693.00
2023-09-23T23:40:21.217Z,97692.00
2023-09-23T23:42:48.379Z,97692.00
2023-09-23T23:45:17.161Z,97693.00
2023-09-23T23:47:44.077Z,97685.00
2023-09-23T23:50:11.502Z,97690.00
2023-09-23T23:52:38.347Z,97682.00
2023-09-23T23:55:05.688Z,97684.00
2023-09-23T23:57:32.556Z,97688.00
2023-09-23T23:59:59.510Z,97688.00
